createdAt,value
2023-02-09T00:02:07.616Z,60.20
2023-02-09T00:07:12.617Z,60.30
2023-02-09T00:12:33.451Z,60.30
2023-02-09T00:17:37.657Z,60.30
2023-02-09T00:22:42.414Z,60.30
2023-02-09T00:27:46.210Z,60.40
2023-02-09T00:32:49.617Z,60.30
2023-02-09T00:37:54.657Z,60.30
2023-02-09T00:42:58.195Z,60.30
2023-02-09T00:48:02.288Z,60.30
2023-02-09T00:53:08.057Z,60.40
2023-02-09T00:58:11.569Z,60.30
2023-02-09T01:03:14.932Z,60.30
2023-02-09T01:08:19.808Z,60.30
2023-02-09T01:13:23.274Z,60.40
2023-02-09T01:18:26.686Z,60.40
2023-02-09T01:23:32.960Z,60.20
2023-02-09T01:28:37.145Z,61.00
2023-02-09T01:33:40.706Z,60.30
2023-02-09T01:38:45.474Z,60.40
2023-02-09T01:43:54.752Z,60.40
2023-02-09T01:49:04.133Z,60.50
2023-02-09T01:54:13.518Z,60.60
2023-02-09T01:59:18.187Z,60.60
2023-02-09T02:04:22.301Z,60.70
2023-02-09T02:09:27.368Z,60.70
2023-02-09T02:14:32.450Z,61.10
2023-02-09T02:20:26.029Z,60.80
2023-02-09T02:25:55.042Z,61.20
2023-02-09T02:31:20.129Z,61.90
2023-02-09T02:36:31.835Z,61.20
2023-02-09T02:41:58.058Z,61.10
2023-02-09T02:47:04.599Z,61.30
2023-02-09T02:52:12.227Z,61.20
2023-02-09T02:57:20.122Z,61.20
2023-02-09T03:02:26.136Z,61.20
2023-02-09T03:07:31.269Z,61.20
2023-02-09T03:12:52.777Z,61.40
2023-02-09T03:18:04.955Z,61.50
2023-02-09T03:23:19.348Z,61.40
2023-02-09T03:28:28.528Z,61.50
2023-02-09T03:33:34.748Z,61.40
2023-02-09T03:38:39.486Z,61.40
2023-02-09T03:44:00.369Z,61.60
2023-02-09T03:49:03.938Z,61.50
2023-02-09T03:54:08.943Z,61.50
2023-02-09T03:59:12.613Z,61.80
2023-02-09T04:04:15.978Z,61.70
2023-02-09T04:09:21.593Z,61.90
2023-02-09T04:14:25.448Z,62.00
2023-02-09T04:19:28.881Z,61.90
2023-02-09T04:24:33.729Z,61.90
2023-02-09T04:29:37.450Z,61.90
2023-02-09T04:34:40.855Z,61.90
2023-02-09T04:39:45.680Z,61.90
2023-02-09T04:44:49.282Z,61.90
2023-02-09T04:49:52.712Z,62.00
2023-02-09T04:54:57.586Z,61.90
2023-02-09T05:00:00.914Z,62.00
2023-02-09T05:05:04.728Z,61.90
2023-02-09T05:10:10.304Z,61.90
2023-02-09T05:15:13.789Z,62.00
2023-02-09T05:20:17.549Z,61.90
2023-02-09T05:25:22.463Z,62.00
2023-02-09T05:30:26.690Z,61.80
2023-02-09T05:35:30.288Z,61.90
2023-02-09T05:40:35.178Z,61.90
2023-02-09T05:45:38.619Z,61.90
2023-02-09T05:50:42.144Z,61.90
2023-02-09T05:55:47.893Z,62.00
2023-02-09T06:00:51.316Z,62.00
2023-02-09T06:05:54.820Z,61.90
2023-02-09T06:10:59.713Z,61.90
2023-02-09T06:16:03.528Z,61.90
2023-02-09T06:21:07.829Z,61.90
2023-02-09T06:26:15.214Z,62.00
2023-02-09T06:31:18.718Z,62.10
2023-02-09T06:36:22.138Z,62.00
2023-02-09T06:41:27.003Z,62.10
2023-02-09T06:46:30.592Z,63.00
2023-02-09T06:51:33.971Z,62.10
2023-02-09T06:56:38.944Z,62.10
2023-02-09T07:01:42.536Z,62.10
2023-02-09T07:06:46.032Z,62.10
2023-02-09T07:11:51.472Z,62.10
2023-02-09T07:16:55.054Z,62.10
2023-02-09T07:21:58.801Z,62.20
2023-02-09T07:27:04.925Z,62.20
2023-02-09T07:32:08.990Z,62.30
2023-02-09T07:37:12.584Z,62.30
2023-02-09T07:42:17.850Z,62.30
2023-02-09T07:47:26.188Z,62.60
2023-02-09T07:52:29.912Z,62.70
2023-02-09T07:57:34.733Z,62.80
2023-02-09T08:02:39.549Z,62.90
2023-02-09T08:07:43.007Z,62.80
2023-02-09T08:13:03.946Z,62.90
2023-02-09T08:18:13.174Z,62.90
2023-02-09T08:23:21.786Z,63.00
2023-02-09T08:28:42.902Z,63.00
2023-02-09T08:33:48.234Z,63.10
2023-02-09T08:38:51.686Z,63.00
2023-02-09T08:43:59.221Z,63.10
2023-02-09T08:49:02.754Z,63.20
2023-02-09T08:54:06.456Z,63.20
2023-02-09T08:59:11.638Z,63.20
2023-02-09T09:04:15.362Z,63.20
2023-02-09T09:09:18.782Z,63.70
2023-02-09T09:14:27.112Z,64.50
2023-02-09T09:19:30.729Z,64.10
2023-02-09T09:24:40.723Z,63.80
2023-02-09T09:29:45.583Z,63.50
2023-02-09T09:34:49.290Z,63.10
2023-02-09T09:39:53.605Z,63.10
2023-02-09T09:44:58.562Z,62.90
2023-02-09T09:50:02.538Z,62.80
2023-02-09T09:55:09.393Z,62.80
2023-02-09T10:00:20.340Z,62.50
2023-02-09T10:05:25.676Z,62.20
2023-02-09T10:10:39.925Z,62.40
2023-02-09T10:15:48.930Z,62.20
2023-02-09T10:20:54.837Z,62.20
2023-02-09T10:26:04.027Z,62.20
2023-02-09T10:31:18.764Z,61.50
2023-02-09T10:36:28.894Z,60.90
2023-02-09T10:41:35.583Z,61.10
2023-02-09T10:46:41.396Z,61.10
2023-02-09T10:51:45.029Z,60.90
2023-02-09T10:56:51.217Z,61.00
2023-02-09T11:01:59.638Z,60.60
2023-02-09T11:07:05.466Z,60.10
2023-02-09T11:12:12.220Z,60.10
2023-02-09T11:17:26.798Z,59.80
2023-02-09T11:22:49.146Z,59.60
2023-02-09T11:28:09.633Z,59.40
2023-02-09T11:33:19.518Z,59.20
2023-02-09T11:38:38.095Z,59.10
2023-02-09T11:43:44.600Z,58.90
2023-02-09T11:48:59.548Z,59.30
2023-02-09T11:54:08.455Z,59.00
2023-02-09T11:59:19.063Z,59.20
2023-02-09T12:04:30.121Z,58.90
2023-02-09T12:09:46.080Z,58.90
2023-02-09T12:15:07.115Z,58.80
2023-02-09T12:20:27.236Z,58.70
2023-02-09T12:25:51.977Z,59.50
2023-02-09T12:31:11.433Z,59.10
2023-02-09T12:36:31.866Z,58.70
2023-02-09T12:42:13.853Z,58.50
2023-02-09T12:47:43.307Z,58.20
2023-02-09T12:53:21.284Z,58.10
2023-02-09T12:58:54.180Z,58.10
2023-02-09T13:04:01.749Z,58.00
2023-02-09T13:09:10.794Z,63.70
2023-02-09T13:14:17.544Z,64.30
2023-02-09T13:19:47.908Z,62.00
2023-02-09T13:24:57.909Z,59.80
2023-02-09T13:30:02.860Z,58.90
2023-02-09T13:35:17.160Z,58.50
2023-02-09T13:40:24.113Z,57.70
2023-02-09T13:45:29.018Z,57.80
2023-02-09T13:50:33.505Z,57.70
2023-02-09T13:55:39.991Z,57.80
2023-02-09T14:00:48.893Z,57.70
2023-02-09T14:05:57.673Z,57.30
2023-02-09T14:11:06.834Z,57.40
2023-02-09T14:16:16.436Z,57.50
2023-02-09T14:21:23.028Z,57.30
2023-02-09T14:26:27.810Z,57.50
2023-02-09T14:31:36.370Z,57.40
2023-02-09T14:36:40.004Z,57.30
2023-02-09T14:41:55.999Z,57.50
2023-02-09T14:47:02.172Z,57.60
2023-02-09T14:52:14.253Z,57.60
2023-02-09T14:57:20.396Z,57.60
2023-02-09T15:02:27.331Z,57.70
2023-02-09T15:07:35.131Z,57.50
2023-02-09T15:12:38.514Z,57.40
2023-02-09T15:17:43.380Z,57.50
2023-02-09T15:22:47.260Z,57.40
2023-02-09T15:27:52.994Z,57.40
2023-02-09T15:32:58.192Z,57.30
2023-02-09T15:38:03.985Z,57.30
2023-02-09T15:43:30.203Z,57.40
2023-02-09T15:48:37.120Z,57.10
2023-02-09T15:53:41.534Z,57.40
2023-02-09T15:58:48.257Z,57.30
2023-02-09T16:03:58.418Z,57.40
2023-02-09T16:09:07.102Z,57.30
2023-02-09T16:14:18.392Z,57.30
2023-02-09T16:19:24.334Z,57.00
2023-02-09T16:24:31.849Z,57.20
2023-02-09T16:29:36.688Z,57.40
2023-02-09T16:34:41.809Z,57.50
2023-02-09T16:39:46.817Z,57.50
2023-02-09T16:44:50.216Z,57.30
2023-02-09T16:50:00.696Z,57.40
2023-02-09T16:55:13.033Z,57.20
2023-02-09T17:00:19.520Z,57.30
2023-02-09T17:05:28.134Z,57.20
2023-02-09T17:10:34.462Z,57.10
2023-02-09T17:15:43.840Z,57.20
2023-02-09T17:20:53.532Z,57.10
2023-02-09T17:25:58.083Z,57.10
2023-02-09T17:31:13.433Z,57.20
2023-02-09T17:36:26.817Z,57.20
2023-02-09T17:41:37.729Z,57.20
2023-02-09T17:46:51.966Z,57.20
2023-02-09T17:51:58.418Z,57.20
2023-02-09T17:57:03.844Z,57.20
2023-02-09T18:02:17.735Z,57.30
2023-02-09T18:07:24.421Z,57.10
2023-02-09T18:12:29.148Z,57.20
2023-02-09T18:17:34.823Z,57.20
2023-02-09T18:22:43.755Z,57.30
2023-02-09T18:27:49.578Z,57.20
2023-02-09T18:32:56.733Z,57.30
2023-02-09T18:38:16.684Z,57.30
2023-02-09T18:43:21.489Z,57.30
2023-02-09T18:48:29.727Z,57.40
2023-02-09T18:53:37.815Z,57.40
2023-02-09T18:58:42.729Z,57.30
2023-02-09T19:03:50.209Z,57.40
2023-02-09T19:08:57.425Z,57.40
2023-02-09T19:14:19.796Z,57.50
2023-02-09T19:19:25.792Z,57.40
2023-02-09T19:24:33.062Z,57.50
2023-02-09T19:29:39.731Z,57.70
2023-02-09T19:34:49.136Z,57.40
2023-02-09T19:40:05.263Z,57.50
2023-02-09T19:45:10.787Z,57.40
2023-02-09T19:50:18.395Z,57.50
2023-02-09T19:55:27.023Z,57.40
2023-02-09T20:00:34.625Z,57.40
2023-02-09T20:05:46.192Z,57.40
2023-02-09T20:10:52.544Z,57.20
2023-02-09T20:15:57.431Z,57.30
2023-02-09T20:21:06.941Z,57.30
2023-02-09T20:26:15.572Z,57.40
2023-02-09T20:31:26.140Z,57.20
2023-02-09T20:36:32.662Z,57.10
2023-02-09T20:41:39.257Z,57.40
2023-02-09T20:46:58.159Z,57.30
2023-02-09T20:52:03.579Z,57.30
2023-02-09T20:57:11.825Z,57.30
2023-02-09T21:02:26.662Z,57.20
2023-02-09T21:07:30.807Z,57.40
2023-02-09T21:12:37.051Z,57.30
2023-02-09T21:17:47.760Z,57.20
2023-02-09T21:22:52.743Z,57.30
2023-02-09T21:28:13.413Z,57.30
2023-02-09T21:33:17.940Z,57.00
2023-02-09T21:38:21.692Z,57.40
2023-02-09T21:43:28.064Z,57.30
2023-02-09T21:48:40.367Z,57.30
2023-02-09T21:53:44.157Z,57.30
2023-02-09T21:58:49.388Z,57.40
2023-02-09T22:03:57.373Z,57.30
2023-02-09T22:09:03.046Z,57.40
2023-02-09T22:14:07.985Z,57.40
2023-02-09T22:19:11.385Z,57.30
2023-02-09T22:24:16.607Z,57.40
2023-02-09T22:29:21.618Z,57.40
2023-02-09T22:34:25.065Z,57.40
2023-02-09T22:39:28.718Z,57.40
2023-02-09T22:44:33.958Z,57.40
2023-02-09T22:49:37.463Z,57.40
2023-02-09T22:54:41.088Z,57.40
2023-02-09T22:59:48.527Z,57.40
2023-02-09T23:04:52.128Z,57.40
2023-02-09T23:09:55.841Z,57.40
2023-02-09T23:15:00.722Z,57.40
2023-02-09T23:20:04.343Z,57.40
2023-02-09T23:25:08.553Z,57.50
2023-02-09T23:30:14.816Z,57.60
2023-02-09T23:35:18.685Z,57.50
2023-02-09T23:40:22.206Z,57.60
2023-02-09T23:45:27.188Z,57.50
2023-02-09T23:50:31.057Z,57.50
2023-02-09T23:55:34.433Z,57.50
